createdAt,value
2018-01-06T00:00:16.451Z,7.60
2018-01-06T00:02:44.678Z,7.60
2018-01-06T00:05:12.135Z,7.60
2018-01-06T00:07:40.318Z,7.60
2018-01-06T00:10:07.732Z,7.60
2018-01-06T00:12:35.967Z,7.50
2018-01-06T00:15:03.382Z,7.50
2018-01-06T00:17:30.843Z,7.50
2018-01-06T00:19:59.109Z,7.50
2018-01-06T00:22:26.552Z,7.50
2018-01-06T00:24:54.014Z,7.40
2018-01-06T00:27:21.454Z,7.40
2018-01-06T00:29:48.910Z,7.40
2018-01-06T00:32:17.130Z,7.40
2018-01-06T00:34:44.532Z,7.40
2018-01-06T00:37:11.998Z,7.40
2018-01-06T00:39:39.453Z,7.30
2018-01-06T00:42:06.921Z,7.30
2018-01-06T00:44:35.879Z,7.30
2018-01-06T00:47:03.330Z,7.30
2018-01-06T00:49:30.778Z,7.30
2018-01-06T00:51:59.747Z,7.30
2018-01-06T00:54:27.143Z,7.30
2018-01-06T00:56:54.593Z,7.30
2018-01-06T00:59:21.994Z,7.20
2018-01-06T01:01:50.238Z,7.20
2018-01-06T01:04:17.614Z,7.20
2018-01-06T01:06:45.048Z,7.20
2018-01-06T01:09:12.468Z,7.10
2018-01-06T01:11:39.880Z,7.20
2018-01-06T01:14:07.324Z,7.20
2018-01-06T01:16:34.771Z,7.20
2018-01-06T01:19:02.191Z,7.10
2018-01-06T01:21:29.635Z,7.10
2018-01-06T01:23:57.068Z,7.20
2018-01-06T01:26:24.484Z,7.10
2018-01-06T01:28:51.900Z,7.10
2018-01-06T01:31:20.142Z,7.00
2018-01-06T01:33:47.557Z,7.00
2018-01-06T01:36:14.980Z,7.00
2018-01-06T01:38:42.413Z,7.00
2018-01-06T01:41:09.834Z,7.10
2018-01-06T01:43:38.049Z,7.20
2018-01-06T01:46:05.471Z,7.10
2018-01-06T01:48:32.898Z,7.10
2018-01-06T01:51:00.312Z,7.10
2018-01-06T01:53:28.503Z,7.10
2018-01-06T01:55:55.919Z,7.10
2018-01-06T01:58:24.104Z,7.10
2018-01-06T02:00:51.524Z,7.10
2018-01-06T02:03:18.943Z,7.10
2018-01-06T02:05:46.359Z,7.10
2018-01-06T02:08:13.796Z,7.20
2018-01-06T02:10:41.244Z,7.10
2018-01-06T02:13:08.660Z,7.10
2018-01-06T02:15:36.076Z,7.10
2018-01-06T02:18:03.506Z,7.10
2018-01-06T02:20:31.679Z,7.10
2018-01-06T02:22:59.092Z,7.10
2018-01-06T02:25:26.512Z,7.10
2018-01-06T02:27:53.927Z,7.10
2018-01-06T02:30:21.352Z,7.10
2018-01-06T02:32:48.767Z,7.10
2018-01-06T02:35:16.955Z,7.10
2018-01-06T02:37:44.363Z,7.10
2018-01-06T02:40:12.568Z,7.10
2018-01-06T02:42:39.995Z,7.10
2018-01-06T02:45:07.407Z,7.10
2018-01-06T02:47:36.404Z,7.00
2018-01-06T02:50:03.842Z,7.00
2018-01-06T02:52:32.020Z,7.10
2018-01-06T02:54:59.445Z,7.10
2018-01-06T02:57:26.879Z,7.10
2018-01-06T02:59:55.064Z,7.10
2018-01-06T03:02:22.488Z,7.00
2018-01-06T03:04:49.922Z,7.10
2018-01-06T03:07:18.131Z,7.10
2018-01-06T03:09:45.580Z,7.10
2018-01-06T03:12:13.003Z,7.10
2018-01-06T03:14:40.429Z,7.10
2018-01-06T03:17:07.848Z,7.10
2018-01-06T03:19:35.282Z,7.20
2018-01-06T03:22:03.460Z,7.20
2018-01-06T03:24:30.896Z,7.20
2018-01-06T03:26:58.331Z,7.10
2018-01-06T03:29:25.765Z,7.10
2018-01-06T03:31:53.964Z,7.10
2018-01-06T03:34:21.392Z,7.10
2018-01-06T03:36:48.811Z,7.10
2018-01-06T03:39:16.246Z,7.00
2018-01-06T03:41:44.431Z,7.00
2018-01-06T03:44:11.860Z,7.00
2018-01-06T03:46:39.300Z,7.00
2018-01-06T03:49:06.723Z,7.00
2018-01-06T03:51:34.948Z,7.00
2018-01-06T03:54:02.377Z,7.00
2018-01-06T03:56:29.810Z,7.00
2018-01-06T03:58:57.272Z,7.00
2018-01-06T04:01:24.731Z,6.90
2018-01-06T04:03:52.128Z,7.00
2018-01-06T04:06:19.551Z,6.90
2018-01-06T04:08:46.985Z,6.90
2018-01-06T04:11:15.160Z,6.80
2018-01-06T04:13:42.587Z,6.80
2018-01-06T04:16:10.091Z,6.80
2018-01-06T04:18:37.503Z,6.70
2018-01-06T04:21:04.928Z,6.80
2018-01-06T04:23:32.400Z,6.70
2018-01-06T04:25:59.824Z,6.70
2018-01-06T04:28:27.260Z,6.60
2018-01-06T04:30:54.676Z,6.50
2018-01-06T04:33:22.860Z,6.40
2018-01-06T04:35:50.298Z,6.40
2018-01-06T04:38:17.727Z,6.30
2018-01-06T04:40:45.147Z,6.20
2018-01-06T04:43:13.340Z,6.20
2018-01-06T04:45:40.759Z,6.10
2018-01-06T04:48:08.944Z,6.10
2018-01-06T04:50:36.367Z,6.10
2018-01-06T04:53:03.836Z,6.20
2018-01-06T04:55:31.276Z,6.20
2018-01-06T04:57:58.712Z,6.20
2018-01-06T05:00:26.131Z,6.20
2018-01-06T05:02:53.555Z,6.20
2018-01-06T05:05:21.735Z,6.30
2018-01-06T05:07:49.172Z,6.30
2018-01-06T05:10:16.608Z,6.40
2018-01-06T05:12:44.827Z,6.50
2018-01-06T05:15:12.260Z,6.50
2018-01-06T05:17:39.679Z,6.50
2018-01-06T05:20:07.108Z,6.50
2018-01-06T05:22:34.542Z,6.40
2018-01-06T05:25:02.020Z,6.40
2018-01-06T05:27:29.450Z,6.50
2018-01-06T05:29:56.891Z,6.40
2018-01-06T05:32:24.319Z,6.40
2018-01-06T05:34:51.756Z,6.40
2018-01-06T05:37:19.179Z,6.40
2018-01-06T05:39:47.372Z,6.40
2018-01-06T05:42:14.808Z,6.40
2018-01-06T05:44:42.277Z,6.40
2018-01-06T05:47:09.713Z,6.40
2018-01-06T05:49:37.136Z,6.40
2018-01-06T05:52:04.616Z,6.30
2018-01-06T05:54:32.054Z,6.30
2018-01-06T05:56:59.476Z,6.20
2018-01-06T05:59:26.899Z,6.10
2018-01-06T06:01:54.328Z,6.10
2018-01-06T06:04:21.747Z,6.10
2018-01-06T06:06:49.944Z,6.10
2018-01-06T06:09:17.368Z,6.10
2018-01-06T06:11:44.792Z,6.10
2018-01-06T06:14:12.992Z,6.10
2018-01-06T06:16:40.412Z,6.10
2018-01-06T06:19:07.887Z,6.10
2018-01-06T06:21:35.315Z,6.10
2018-01-06T06:24:02.732Z,6.20
2018-01-06T06:26:30.156Z,6.20
2018-01-06T06:28:58.340Z,6.40
2018-01-06T06:31:25.783Z,6.40
2018-01-06T06:33:53.213Z,6.40
2018-01-06T06:36:21.405Z,6.40
2018-01-06T06:38:48.860Z,6.30
2018-01-06T06:41:16.301Z,6.30
2018-01-06T06:43:43.743Z,6.40
2018-01-06T06:46:11.164Z,6.40
2018-01-06T06:48:38.631Z,6.30
2018-01-06T06:51:06.063Z,6.30
2018-01-06T06:53:33.491Z,6.40
2018-01-06T06:56:00.942Z,6.20
2018-01-06T06:58:28.355Z,6.20
2018-01-06T07:00:55.780Z,6.20
2018-01-06T07:03:23.972Z,6.20
2018-01-06T07:05:51.400Z,6.10
2018-01-06T07:08:18.838Z,6.20
2018-01-06T07:10:46.252Z,6.20
2018-01-06T07:13:14.447Z,6.20
2018-01-06T07:15:41.879Z,6.10
2018-01-06T07:18:09.312Z,6.10
2018-01-06T07:20:36.808Z,6.20
2018-01-06T07:23:04.340Z,6.30
2018-01-06T07:25:31.775Z,6.30
2018-01-06T07:27:59.204Z,6.30
2018-01-06T07:30:26.626Z,6.30
2018-01-06T07:32:54.118Z,6.30
2018-01-06T07:35:21.535Z,6.40
2018-01-06T07:37:48.956Z,6.30
2018-01-06T07:40:16.436Z,6.30
2018-01-06T07:42:43.855Z,6.30
2018-01-06T07:45:11.275Z,6.30
2018-01-06T07:47:38.699Z,6.40
2018-01-06T07:50:06.888Z,6.40
2018-01-06T07:52:34.315Z,6.40
2018-01-06T07:55:01.747Z,6.40
2018-01-06T07:57:29.937Z,6.50
2018-01-06T07:59:57.378Z,6.50
2018-01-06T08:02:24.803Z,6.50
2018-01-06T08:04:52.241Z,6.50
2018-01-06T08:07:20.432Z,6.60
2018-01-06T08:09:47.843Z,6.60
2018-01-06T08:12:15.274Z,6.60
2018-01-06T08:14:43.471Z,6.60
2018-01-06T08:17:10.889Z,6.60
2018-01-06T08:19:38.315Z,6.70
2018-01-06T08:22:06.504Z,6.70
2018-01-06T08:24:33.927Z,6.60
2018-01-06T08:27:01.357Z,6.70
2018-01-06T08:29:29.543Z,6.80
2018-01-06T08:31:57.000Z,6.80
2018-01-06T08:34:24.400Z,6.80
2018-01-06T08:36:52.602Z,6.80
2018-01-06T08:39:20.028Z,6.80
2018-01-06T08:41:47.451Z,6.80
2018-01-06T08:44:14.879Z,6.80
2018-01-06T08:46:43.082Z,6.90
2018-01-06T08:49:10.496Z,6.90
2018-01-06T08:51:37.939Z,7.00
2018-01-06T08:54:05.357Z,7.00
2018-01-06T08:56:33.547Z,6.90
2018-01-06T08:59:00.980Z,6.90
2018-01-06T09:01:28.399Z,6.80
2018-01-06T09:03:56.600Z,6.60
2018-01-06T09:06:24.032Z,6.60
2018-01-06T09:08:51.455Z,6.60
2018-01-06T09:11:18.875Z,6.50
2018-01-06T09:13:46.308Z,6.50
2018-01-06T09:16:15.284Z,6.70
2018-01-06T09:18:42.677Z,6.70
2018-01-06T09:21:10.103Z,6.70
2018-01-06T09:23:37.523Z,6.80
2018-01-06T09:26:05.716Z,7.00
2018-01-06T09:28:33.152Z,6.90
2018-01-06T09:31:01.328Z,7.00
2018-01-06T09:33:28.751Z,7.00
2018-01-06T09:35:56.171Z,7.00
2018-01-06T09:38:24.380Z,7.20
2018-01-06T09:40:51.824Z,7.20
2018-01-06T09:43:19.252Z,7.40
2018-01-06T09:45:46.686Z,7.50
2018-01-06T09:48:14.103Z,7.50
2018-01-06T09:50:41.528Z,7.80
2018-01-06T09:53:09.732Z,8.10
2018-01-06T09:55:37.156Z,8.10
2018-01-06T09:58:04.582Z,8.20
2018-01-06T10:00:32.788Z,8.20
2018-01-06T10:03:00.228Z,8.20
2018-01-06T10:05:27.729Z,8.30
2018-01-06T10:07:55.121Z,8.60
2018-01-06T10:10:22.540Z,8.90
2018-01-06T10:12:49.967Z,9.00
2018-01-06T10:15:17.386Z,9.10
2018-01-06T10:17:45.572Z,8.80
2018-01-06T10:20:12.996Z,8.80
2018-01-06T10:22:40.415Z,8.70
2018-01-06T10:25:07.848Z,8.60
2018-01-06T10:27:35.275Z,8.70
2018-01-06T10:30:02.700Z,9.00
2018-01-06T10:32:30.118Z,9.20
2018-01-06T10:34:57.552Z,9.30
2018-01-06T10:37:24.967Z,9.50
2018-01-06T10:39:53.164Z,9.80
2018-01-06T10:42:20.628Z,9.80
2018-01-06T10:44:48.051Z,10.00
2018-01-06T10:47:15.471Z,10.10
2018-01-06T10:49:42.950Z,10.40
2018-01-06T10:52:10.381Z,10.50
2018-01-06T10:54:37.875Z,10.50
2018-01-06T10:57:05.276Z,10.40
2018-01-06T10:59:32.695Z,10.10
2018-01-06T11:02:05.976Z,9.90
2018-01-06T11:04:33.435Z,9.80
2018-01-06T11:07:00.883Z,9.80
2018-01-06T11:09:28.295Z,9.80
2018-01-06T11:11:55.711Z,9.70
2018-01-06T11:14:23.904Z,9.70
2018-01-06T11:16:51.324Z,9.70
2018-01-06T11:19:18.751Z,9.60
2018-01-06T11:21:46.951Z,9.60
2018-01-06T11:24:14.380Z,9.60
2018-01-06T11:26:41.844Z,9.60
2018-01-06T11:29:09.264Z,9.60
2018-01-06T11:31:36.683Z,9.60
2018-01-06T11:34:04.868Z,9.70
2018-01-06T11:36:32.297Z,9.70
2018-01-06T11:38:59.718Z,9.80
2018-01-06T11:41:27.912Z,10.20
2018-01-06T11:43:55.379Z,10.20
2018-01-06T11:46:22.822Z,10.50
2018-01-06T11:48:50.257Z,10.70
2018-01-06T11:51:17.690Z,11.20
2018-01-06T11:53:45.139Z,11.20
2018-01-06T11:56:12.584Z,10.80
2018-01-06T11:58:40.008Z,11.00
2018-01-06T12:01:07.436Z,11.00
2018-01-06T12:03:34.860Z,11.00
2018-01-06T12:06:03.048Z,10.90
2018-01-06T12:08:30.472Z,10.90
2018-01-06T12:10:57.887Z,11.00
2018-01-06T12:13:26.073Z,11.10
2018-01-06T12:15:53.499Z,11.00
2018-01-06T12:18:21.702Z,11.10
2018-01-06T12:20:49.176Z,11.10
2018-01-06T12:23:16.543Z,11.50
2018-01-06T12:25:44.736Z,11.80
2018-01-06T12:28:12.156Z,11.80
2018-01-06T12:30:39.586Z,12.30
2018-01-06T12:33:07.791Z,13.00
2018-01-06T12:35:35.203Z,13.00
2018-01-06T12:38:02.684Z,13.30
2018-01-06T12:40:30.108Z,12.80
2018-01-06T12:42:57.528Z,12.50
2018-01-06T12:45:24.951Z,12.20
2018-01-06T12:47:53.153Z,11.40
2018-01-06T12:50:20.560Z,11.40
2018-01-06T12:52:48.049Z,11.50
2018-01-06T12:55:15.472Z,11.50
2018-01-06T12:57:42.926Z,11.60
2018-01-06T13:00:10.316Z,11.50
2018-01-06T13:02:38.503Z,11.50
2018-01-06T13:05:05.923Z,11.40
2018-01-06T13:07:33.358Z,11.40
2018-01-06T13:10:01.538Z,11.20
2018-01-06T13:12:28.957Z,11.20
2018-01-06T13:14:57.140Z,10.90
2018-01-06T13:17:24.567Z,10.90
2018-01-06T13:19:51.987Z,10.70
2018-01-06T13:22:20.209Z,11.00
2018-01-06T13:24:47.615Z,10.90
2018-01-06T13:27:15.103Z,11.10
2018-01-06T13:29:42.512Z,11.00
2018-01-06T13:32:09.931Z,11.10
2018-01-06T13:34:37.408Z,11.00
2018-01-06T13:37:04.827Z,10.90
2018-01-06T13:39:32.302Z,10.90
2018-01-06T13:41:59.748Z,10.90
2018-01-06T13:44:27.287Z,10.70
2018-01-06T13:46:54.710Z,10.70
2018-01-06T13:49:22.173Z,10.70
2018-01-06T13:51:49.596Z,10.60
2018-01-06T13:54:17.022Z,10.30
2018-01-06T13:56:44.435Z,10.30
2018-01-06T13:59:12.673Z,10.40
2018-01-06T14:01:40.083Z,10.40
2018-01-06T14:04:07.550Z,10.40
2018-01-06T14:06:34.960Z,10.40
2018-01-06T14:09:02.421Z,10.50
2018-01-06T14:11:29.848Z,10.50
2018-01-06T14:13:57.263Z,10.60
2018-01-06T14:16:24.741Z,10.60
2018-01-06T14:18:52.188Z,10.80
2018-01-06T14:21:19.596Z,10.80
2018-01-06T14:23:47.022Z,10.70
2018-01-06T14:26:15.222Z,10.70
2018-01-06T14:28:42.639Z,10.60
2018-01-06T14:31:10.100Z,10.70
2018-01-06T14:33:37.493Z,10.60
2018-01-06T14:36:05.675Z,10.50
2018-01-06T14:38:33.095Z,10.40
2018-01-06T14:41:01.304Z,10.30
2018-01-06T14:43:28.728Z,10.30
2018-01-06T14:45:56.193Z,10.30
2018-01-06T14:48:23.600Z,10.30
2018-01-06T14:50:51.067Z,10.10
2018-01-06T14:53:18.476Z,10.00
2018-01-06T14:55:45.901Z,10.10
2018-01-06T14:58:14.133Z,10.10
2018-01-06T15:00:41.581Z,10.10
2018-01-06T15:03:08.988Z,10.00
2018-01-06T15:05:36.432Z,9.90
2018-01-06T15:08:03.887Z,9.80
2018-01-06T15:10:31.283Z,9.70
2018-01-06T15:12:58.754Z,9.60
2018-01-06T15:15:26.173Z,9.60
2018-01-06T15:17:53.587Z,9.60
2018-01-06T15:20:21.767Z,9.60
2018-01-06T15:22:49.179Z,9.60
2018-01-06T15:25:16.604Z,9.70
2018-01-06T15:27:44.021Z,9.70
2018-01-06T15:30:11.432Z,9.60
2018-01-06T15:32:38.844Z,9.50
2018-01-06T15:35:07.115Z,9.40
2018-01-06T15:37:34.521Z,9.30
2018-01-06T15:40:02.000Z,9.20
2018-01-06T15:42:29.359Z,9.10
2018-01-06T15:44:56.818Z,9.00
2018-01-06T15:47:24.215Z,8.80
2018-01-06T15:49:52.400Z,8.60
2018-01-06T15:52:19.823Z,8.50
2018-01-06T15:54:48.010Z,8.30
2018-01-06T15:57:15.465Z,8.30
2018-01-06T15:59:42.914Z,8.10
2018-01-06T16:02:10.328Z,8.10
2018-01-06T16:04:37.783Z,8.10
2018-01-06T16:07:05.189Z,8.10
2018-01-06T16:09:33.375Z,8.00
2018-01-06T16:12:00.794Z,8.00
2018-01-06T16:14:29.008Z,7.80
2018-01-06T16:16:56.452Z,7.70
2018-01-06T16:19:23.958Z,7.60
2018-01-06T16:21:51.339Z,7.50
2018-01-06T16:24:18.768Z,7.50
2018-01-06T16:26:46.204Z,7.40
2018-01-06T16:29:13.623Z,7.40
2018-01-06T16:31:41.043Z,7.50
2018-01-06T16:34:09.253Z,7.50
2018-01-06T16:36:36.725Z,7.50
2018-01-06T16:39:04.142Z,7.50
2018-01-06T16:41:31.615Z,7.60
2018-01-06T16:43:59.829Z,7.50
2018-01-06T16:46:27.303Z,7.50
2018-01-06T16:48:54.754Z,7.60
2018-01-06T16:51:22.172Z,7.60
2018-01-06T16:53:49.605Z,7.50
2018-01-06T16:56:17.074Z,7.30
2018-01-06T16:58:44.492Z,7.20
2018-01-06T17:01:11.958Z,7.20
2018-01-06T17:03:40.194Z,6.90
2018-01-06T17:06:07.649Z,6.90
2018-01-06T17:08:35.059Z,6.80
2018-01-06T17:11:02.530Z,6.70
2018-01-06T17:13:29.948Z,6.80
2018-01-06T17:15:57.372Z,6.70
2018-01-06T17:18:24.794Z,6.70
2018-01-06T17:20:53.027Z,6.60
2018-01-06T17:23:20.457Z,6.50
2018-01-06T17:25:47.877Z,6.50
2018-01-06T17:28:15.307Z,6.50
2018-01-06T17:30:42.792Z,6.50
2018-01-06T17:33:10.248Z,6.60
2018-01-06T17:35:39.168Z,6.50
2018-01-06T17:38:06.684Z,6.50
2018-01-06T17:40:34.910Z,6.40
2018-01-06T17:43:02.320Z,6.40
2018-01-06T17:45:29.786Z,6.40
2018-01-06T17:47:57.200Z,6.40
2018-01-06T17:50:24.661Z,6.30
2018-01-06T17:52:52.088Z,6.30
2018-01-06T17:55:19.501Z,6.10
2018-01-06T17:57:46.971Z,6.10
2018-01-06T18:00:14.380Z,6.10
2018-01-06T18:02:41.847Z,6.10
2018-01-06T18:05:09.268Z,6.10
2018-01-06T18:07:36.691Z,6.00
2018-01-06T18:10:04.926Z,6.00
2018-01-06T18:12:32.341Z,6.00
2018-01-06T18:14:59.806Z,6.00
2018-01-06T18:17:27.224Z,6.00
2018-01-06T18:19:54.685Z,6.10
2018-01-06T18:22:22.141Z,5.90
2018-01-06T18:24:49.601Z,5.90
2018-01-06T18:27:17.776Z,5.80
2018-01-06T18:29:45.244Z,5.70
2018-01-06T18:32:12.659Z,5.60
2018-01-06T18:34:40.193Z,5.60
2018-01-06T18:37:08.383Z,5.50
2018-01-06T18:39:35.841Z,5.50
2018-01-06T18:42:03.302Z,5.50
2018-01-06T18:44:31.287Z,5.50
2018-01-06T18:46:59.472Z,5.50
2018-01-06T18:49:26.960Z,5.50
2018-01-06T18:51:54.419Z,5.50
2018-01-06T18:54:21.831Z,5.40
2018-01-06T18:56:49.303Z,5.40
2018-01-06T18:59:16.767Z,5.30
2018-01-06T19:01:44.995Z,5.30
2018-01-06T19:04:12.464Z,5.40
2018-01-06T19:06:40.682Z,5.40
2018-01-06T19:09:08.140Z,5.40
2018-01-06T19:11:35.603Z,5.40
2018-01-06T19:14:03.785Z,5.30
2018-01-06T19:16:31.262Z,5.30
2018-01-06T19:18:58.725Z,5.40
2018-01-06T19:21:26.175Z,5.30
2018-01-06T19:23:55.092Z,5.40
2018-01-06T19:26:22.566Z,5.40
2018-01-06T19:28:50.055Z,5.50
2018-01-06T19:31:18.262Z,5.50
2018-01-06T19:33:45.680Z,5.50
2018-01-06T19:36:13.159Z,5.60
2018-01-06T19:38:40.572Z,5.60
2018-01-06T19:41:08.057Z,5.60
2018-01-06T19:43:35.514Z,5.60
2018-01-06T19:46:03.742Z,5.50
2018-01-06T19:48:31.206Z,5.50
2018-01-06T19:50:58.662Z,5.60
2018-01-06T19:53:26.150Z,5.60
2018-01-06T19:55:53.604Z,5.60
2018-01-06T19:58:21.072Z,5.50
2018-01-06T20:00:48.539Z,5.40
2018-01-06T20:03:16.772Z,5.40
2018-01-06T20:05:44.231Z,5.30
2018-01-06T20:08:12.459Z,5.50
2018-01-06T20:10:39.923Z,5.40
2018-01-06T20:13:07.388Z,5.50
2018-01-06T20:15:35.627Z,5.50
2018-01-06T20:18:03.070Z,5.50
2018-01-06T20:20:30.535Z,5.50
2018-01-06T20:22:58.749Z,5.60
2018-01-06T20:25:26.216Z,5.50
2018-01-06T20:27:53.671Z,5.60
2018-01-06T20:30:21.903Z,5.70
2018-01-06T20:32:49.379Z,5.70
2018-01-06T20:35:17.607Z,5.60
2018-01-06T20:37:45.078Z,5.60
2018-01-06T20:40:13.341Z,5.60
2018-01-06T20:42:41.546Z,5.60
2018-01-06T20:45:09.014Z,5.60
2018-01-06T20:47:37.240Z,5.40
2018-01-06T20:50:04.738Z,5.30
2018-01-06T20:52:32.967Z,5.20
2018-01-06T20:55:00.423Z,5.20
2018-01-06T20:57:27.879Z,5.10
2018-01-06T20:59:56.114Z,4.90
2018-01-06T21:02:23.606Z,4.90
2018-01-06T21:04:51.070Z,4.80
2018-01-06T21:07:18.527Z,4.70
2018-01-06T21:09:46.019Z,4.70
2018-01-06T21:12:14.284Z,4.70
2018-01-06T21:14:42.515Z,4.70
2018-01-06T21:17:09.981Z,4.70
2018-01-06T21:19:38.215Z,4.60
2018-01-06T21:22:05.675Z,4.60
2018-01-06T21:24:33.899Z,4.40
2018-01-06T21:27:01.363Z,4.40
2018-01-06T21:29:28.819Z,4.40
2018-01-06T21:31:57.055Z,4.30
2018-01-06T21:34:24.519Z,4.20
2018-01-06T21:36:51.975Z,4.20
2018-01-06T21:39:20.242Z,4.20
2018-01-06T21:41:48.472Z,4.30
2018-01-06T21:44:15.930Z,4.20
2018-01-06T21:46:44.150Z,4.30
2018-01-06T21:49:11.615Z,4.20
2018-01-06T21:51:39.071Z,4.20
2018-01-06T21:54:06.531Z,4.20
2018-01-06T21:56:33.990Z,4.20
2018-01-06T21:59:01.446Z,4.20
2018-01-06T22:01:28.915Z,4.20
2018-01-06T22:03:56.390Z,4.30
2018-01-06T22:06:24.611Z,4.50
2018-01-06T22:08:52.066Z,4.40
2018-01-06T22:11:19.617Z,4.40
2018-01-06T22:13:47.072Z,4.50
2018-01-06T22:16:15.310Z,4.50
2018-01-06T22:18:42.764Z,4.50
2018-01-06T22:21:11.734Z,4.20
2018-01-06T22:23:39.206Z,4.20
2018-01-06T22:26:07.435Z,4.00
2018-01-06T22:28:34.901Z,4.00
2018-01-06T22:31:03.130Z,3.90
2018-01-06T22:33:30.599Z,3.90
2018-01-06T22:35:58.827Z,3.80
2018-01-06T22:38:26.286Z,3.80
2018-01-06T22:40:53.750Z,3.80
2018-01-06T22:43:22.006Z,3.90
2018-01-06T22:45:49.450Z,3.80
2018-01-06T22:48:17.683Z,4.00
2018-01-06T22:50:45.148Z,4.00
2018-01-06T22:53:13.383Z,4.10
2018-01-06T22:55:40.838Z,4.10
2018-01-06T22:58:09.067Z,4.00
2018-01-06T23:00:39.876Z,4.00
2018-01-06T23:03:07.335Z,4.00
2018-01-06T23:05:34.791Z,3.90
2018-01-06T23:08:02.257Z,3.90
2018-01-06T23:10:30.492Z,3.90
2018-01-06T23:12:57.959Z,3.90
2018-01-06T23:15:26.915Z,3.90
2018-01-06T23:17:54.387Z,3.90
2018-01-06T23:20:22.602Z,3.80
2018-01-06T23:22:50.067Z,3.80
2018-01-06T23:25:17.531Z,3.80
2018-01-06T23:27:45.759Z,3.80
2018-01-06T23:30:13.227Z,3.70
2018-01-06T23:32:41.454Z,3.90
2018-01-06T23:35:08.911Z,3.90
2018-01-06T23:37:36.371Z,3.90
2018-01-06T23:40:04.603Z,4.00
2018-01-06T23:42:32.068Z,4.00
2018-01-06T23:44:59.512Z,3.90
2018-01-06T23:47:27.739Z,4.00
2018-01-06T23:49:55.195Z,4.00
2018-01-06T23:52:22.650Z,3.90
2018-01-06T23:54:50.886Z,4.00
2018-01-06T23:57:18.325Z,4.00
2018-01-06T23:59:45.807Z,4.10
